Fairforest, South Carolina
Current Conditions -  °F | °C
As of 12:15 PM on Tuesday 27 Jan 2015 (Local Time) from KSPA Reporting Station
Scattered Clouds Scattered Clouds  
Wind Chill: 38°   Ceiling: Unl
Heat Index: 43°   Visibility: 10mi
Dew Point: 25°   Wind: 8mph
Humidity: 49%   Direction: 360°N
Pressure: 29.88"   Gusts: NA
Location:  34.96°N, 82.01°W
Report Text: KSPA 271715Z AUTO 36007KT 10SM SCT070 SCT075 06/M04 A2988 RMK AO2
Loading
Personal Weather Stations






























Interactive Weather Map New forecast layout! Learn more

10-Day Weather Forecast

Advertisements
Track Severe Weather on mobile